createdAt,value
2022-11-12T00:00:50.988Z,87.52
2022-11-12T00:03:12.683Z,87.64
2022-11-12T00:05:34.194Z,87.30
2022-11-12T00:07:55.740Z,87.30
2022-11-12T00:10:17.993Z,87.36
2022-11-12T00:12:39.506Z,87.53
2022-11-12T00:15:01.027Z,87.24
2022-11-12T00:17:22.571Z,86.77
2022-11-12T00:19:44.078Z,86.94
2022-11-12T00:22:05.565Z,88.28
2022-11-12T00:24:27.066Z,87.92
2022-11-12T00:26:48.577Z,88.57
2022-11-12T00:29:10.112Z,89.51
2022-11-12T00:31:31.691Z,88.63
2022-11-12T00:33:53.174Z,89.41
2022-11-12T00:36:14.745Z,88.95
2022-11-12T00:38:36.306Z,88.25
2022-11-12T00:41:01.180Z,87.85
2022-11-12T00:43:24.107Z,87.46
2022-11-12T00:45:45.581Z,90.26
2022-11-12T00:48:07.146Z,88.62
2022-11-12T00:50:28.604Z,88.91
2022-11-12T00:52:52.885Z,90.39
2022-11-12T00:55:14.407Z,90.46
2022-11-12T00:57:35.879Z,90.10
2022-11-12T00:59:57.378Z,89.58
2022-11-12T01:02:20.466Z,89.25
2022-11-12T01:04:41.970Z,88.81
2022-11-12T01:07:03.527Z,89.22
2022-11-12T01:09:25.097Z,89.95
2022-11-12T01:11:46.666Z,90.36
2022-11-12T01:14:10.169Z,89.66
2022-11-12T01:16:35.857Z,89.11
2022-11-12T01:19:00.132Z,89.46
2022-11-12T01:21:23.510Z,88.78
2022-11-12T01:23:44.969Z,88.94
2022-11-12T01:26:08.310Z,88.70
2022-11-12T01:28:29.831Z,88.63
2022-11-12T01:30:51.460Z,90.82
2022-11-12T01:33:12.919Z,90.13
2022-11-12T01:35:34.444Z,89.78
2022-11-12T01:37:55.898Z,89.53
2022-11-12T01:40:17.568Z,89.03
2022-11-12T01:42:39.210Z,88.21
2022-11-12T01:45:00.767Z,88.59
2022-11-12T01:47:25.406Z,88.95
2022-11-12T01:49:58.019Z,88.98
2022-11-12T01:52:31.112Z,90.07
2022-11-12T01:54:56.345Z,89.07
2022-11-12T01:57:24.429Z,89.00
2022-11-12T01:59:49.060Z,88.84
2022-11-12T02:02:11.435Z,88.78
2022-11-12T02:04:34.640Z,88.10
2022-11-12T02:06:57.511Z,88.26
2022-11-12T02:09:19.529Z,88.23
2022-11-12T02:11:41.091Z,87.73
2022-11-12T02:14:02.871Z,88.07
2022-11-12T02:16:32.417Z,87.56
2022-11-12T02:18:53.909Z,87.17
2022-11-12T02:21:19.634Z,88.33
2022-11-12T02:23:41.142Z,87.95
2022-11-12T02:26:02.888Z,87.95
2022-11-12T02:28:24.901Z,87.69
2022-11-12T02:30:49.287Z,87.81
2022-11-12T02:33:10.894Z,87.68
2022-11-12T02:35:32.916Z,87.92
2022-11-12T02:37:54.383Z,88.46
2022-11-12T02:40:16.125Z,88.11
2022-11-12T02:42:37.579Z,88.54
2022-11-12T02:44:59.068Z,88.04
2022-11-12T02:47:20.609Z,88.16
2022-11-12T02:49:42.140Z,88.63
2022-11-12T02:52:03.735Z,88.22
2022-11-12T02:54:25.277Z,88.08
2022-11-12T02:56:46.802Z,88.46
2022-11-12T02:59:08.273Z,88.21
2022-11-12T03:01:29.923Z,88.92
2022-11-12T03:03:51.973Z,89.71
2022-11-12T03:06:13.503Z,90.01
2022-11-12T03:08:34.948Z,90.33
2022-11-12T03:10:56.439Z,89.72
2022-11-12T03:13:18.247Z,89.20
2022-11-12T03:15:39.800Z,88.97
2022-11-12T03:18:01.292Z,88.94
2022-11-12T03:20:22.819Z,89.00
2022-11-12T03:22:56.253Z,88.87
2022-11-12T03:25:17.797Z,88.97
2022-11-12T03:27:39.294Z,89.00
2022-11-12T03:30:00.989Z,89.20
2022-11-12T03:32:22.506Z,89.99
2022-11-12T03:34:44.015Z,89.98
2022-11-12T03:37:09.381Z,90.33
2022-11-12T03:39:30.932Z,89.88
2022-11-12T03:41:52.462Z,89.76
2022-11-12T03:44:13.974Z,90.57
2022-11-12T03:46:37.867Z,90.24
2022-11-12T03:49:03.051Z,89.97
2022-11-12T03:51:24.611Z,90.17
2022-11-12T03:53:46.046Z,90.20
2022-11-12T03:56:08.012Z,89.96
2022-11-12T03:58:29.662Z,91.16
2022-11-12T04:00:51.499Z,90.59
2022-11-12T04:03:12.989Z,92.06
2022-11-12T04:05:52.975Z,92.47
2022-11-12T04:08:35.273Z,93.29
2022-11-12T04:10:56.807Z,92.79
2022-11-12T04:13:27.619Z,92.49
2022-11-12T04:16:09.080Z,92.10
2022-11-12T04:18:49.020Z,91.33
2022-11-12T04:21:32.726Z,91.83
2022-11-12T04:23:54.228Z,91.66
2022-11-12T04:26:24.461Z,91.79
2022-11-12T04:29:04.606Z,92.13
2022-11-12T04:31:26.447Z,91.61
2022-11-12T04:33:47.940Z,91.54
2022-11-12T04:36:09.409Z,91.69
2022-11-12T04:38:30.886Z,91.74
2022-11-12T04:41:10.883Z,91.48
2022-11-12T04:43:50.747Z,93.20
2022-11-12T04:46:12.251Z,92.47
2022-11-12T04:48:33.788Z,93.20
2022-11-12T04:50:58.737Z,92.72
2022-11-12T04:53:20.410Z,92.53
2022-11-12T04:55:42.082Z,92.61
2022-11-12T04:58:03.613Z,93.81
2022-11-12T05:00:25.568Z,92.78
2022-11-12T05:02:49.499Z,92.36
2022-11-12T05:05:10.982Z,91.99
2022-11-12T05:07:33.217Z,92.83
2022-11-12T05:09:54.682Z,93.27
2022-11-12T05:12:16.217Z,93.51
2022-11-12T05:14:37.736Z,93.23
2022-11-12T05:16:59.432Z,92.91
2022-11-12T05:19:20.985Z,92.41
2022-11-12T05:24:41.918Z,91.57
2022-11-12T05:27:06.365Z,91.59
2022-11-12T05:29:27.867Z,91.51
2022-11-12T05:31:49.355Z,91.15
2022-11-12T05:34:11.430Z,91.18
2022-11-12T05:36:34.122Z,91.12
2022-11-12T05:38:55.737Z,90.58
2022-11-12T05:41:20.367Z,90.81
2022-11-12T05:43:42.185Z,91.30
2022-11-12T05:46:03.788Z,90.92
2022-11-12T05:48:25.435Z,90.67
2022-11-12T05:51:11.803Z,90.43
2022-11-12T05:53:32.677Z,90.07
2022-11-12T05:55:54.151Z,90.13
2022-11-12T05:58:15.640Z,90.23
2022-11-12T06:00:39.174Z,90.70
2022-11-12T06:03:00.776Z,90.85
2022-11-12T06:05:22.325Z,90.58
2022-11-12T06:07:43.824Z,90.66
2022-11-12T06:10:05.683Z,90.70
2022-11-12T06:12:27.201Z,90.48
2022-11-12T06:14:48.656Z,89.89
2022-11-12T06:17:10.135Z,89.32
2022-11-12T06:19:31.617Z,89.39
2022-11-12T06:21:53.120Z,89.31
2022-11-12T06:24:14.952Z,89.81
2022-11-12T06:26:38.030Z,89.35
2022-11-12T06:28:59.551Z,89.08
2022-11-12T06:31:21.942Z,89.42
2022-11-12T06:33:44.782Z,89.50
2022-11-12T06:36:07.075Z,89.06
2022-11-12T06:38:33.358Z,88.93
2022-11-12T06:40:54.823Z,88.85
2022-11-12T06:43:16.369Z,88.91
2022-11-12T06:45:37.826Z,88.49
2022-11-12T06:47:59.439Z,88.33
2022-11-12T06:50:20.892Z,88.03
2022-11-12T06:52:42.689Z,88.12
2022-11-12T06:55:09.250Z,88.11
2022-11-12T07:01:15.152Z,87.95
2022-11-12T07:03:37.248Z,88.01
2022-11-12T07:05:58.733Z,87.92
2022-11-12T07:08:20.202Z,88.80
2022-11-12T07:10:41.650Z,88.46
2022-11-12T07:13:03.170Z,88.40
2022-11-12T07:15:24.739Z,88.38
2022-11-12T07:17:46.691Z,88.84
2022-11-12T07:20:09.065Z,88.71
2022-11-12T07:22:33.423Z,88.69
2022-11-12T07:24:54.874Z,88.34
2022-11-12T07:27:16.322Z,88.22
2022-11-12T07:29:47.683Z,87.64
2022-11-12T07:32:10.036Z,88.29
2022-11-12T07:34:31.466Z,87.42
2022-11-12T07:36:52.930Z,87.57
2022-11-12T07:39:14.368Z,88.36
2022-11-12T07:41:35.844Z,87.74
2022-11-12T07:43:57.271Z,87.08
2022-11-12T07:46:27.076Z,87.26
2022-11-12T07:48:49.274Z,87.08
2022-11-12T07:51:19.807Z,89.24
2022-11-12T07:53:42.536Z,89.51
2022-11-12T07:56:04.835Z,88.87
2022-11-12T07:58:27.375Z,88.00
2022-11-12T08:00:49.087Z,87.69
2022-11-12T08:03:10.522Z,87.11
2022-11-12T08:05:33.859Z,87.73
2022-11-12T08:07:56.936Z,87.42
2022-11-12T08:10:18.514Z,87.06
2022-11-12T08:12:39.930Z,88.63
2022-11-12T08:15:01.378Z,90.24
2022-11-12T08:17:22.809Z,90.95
2022-11-12T08:19:44.223Z,89.55
2022-11-12T08:22:05.668Z,89.33
2022-11-12T08:24:27.091Z,88.46
2022-11-12T08:26:48.544Z,88.17
2022-11-12T08:29:10.013Z,87.45
2022-11-12T08:31:31.564Z,87.31
2022-11-12T08:33:52.973Z,86.96
2022-11-12T08:36:16.455Z,86.74
2022-11-12T08:38:39.123Z,87.26
2022-11-12T08:41:06.325Z,87.43
2022-11-12T08:43:27.839Z,87.26
2022-11-12T08:45:50.176Z,88.16
2022-11-12T08:48:16.453Z,88.60
2022-11-12T08:50:37.964Z,89.04
2022-11-12T08:53:03.678Z,89.14
2022-11-12T08:55:25.204Z,90.19
2022-11-12T08:57:46.750Z,89.10
2022-11-12T09:00:12.839Z,88.39
2022-11-12T09:02:34.315Z,88.63
2022-11-12T09:04:55.732Z,89.50
2022-11-12T09:07:43.453Z,89.23
2022-11-12T09:09:58.715Z,88.43
2022-11-12T09:12:20.191Z,87.55
2022-11-12T09:14:41.636Z,87.00
2022-11-12T09:17:03.117Z,87.35
2022-11-12T09:19:24.583Z,90.21
2022-11-12T09:21:46.094Z,91.36
2022-11-12T09:24:07.726Z,90.94
2022-11-12T09:26:29.171Z,89.24
2022-11-12T09:28:52.350Z,90.84
2022-11-12T09:31:13.827Z,91.45
2022-11-12T09:33:35.321Z,91.52
2022-11-12T09:36:01.135Z,93.04
2022-11-12T09:38:22.959Z,92.65
2022-11-12T09:40:57.487Z,91.61
2022-11-12T09:43:27.962Z,90.96
2022-11-12T09:46:06.474Z,91.43
2022-11-12T09:48:40.779Z,90.37
2022-11-12T09:51:12.119Z,90.83
2022-11-12T09:53:45.009Z,90.61
2022-11-12T09:56:10.934Z,91.26
2022-11-12T09:58:32.383Z,90.52
2022-11-12T10:00:56.894Z,90.28
2022-11-12T10:03:34.404Z,89.71
2022-11-12T10:06:01.065Z,89.29
2022-11-12T10:08:39.505Z,88.66
2022-11-12T10:11:09.595Z,88.86
2022-11-12T10:13:43.914Z,88.79
2022-11-12T10:16:42.814Z,88.63
2022-11-12T10:19:22.578Z,87.52
2022-11-12T10:21:57.994Z,86.64
2022-11-12T10:24:21.558Z,86.75
2022-11-12T10:26:43.100Z,86.03
2022-11-12T10:29:14.513Z,86.01
2022-11-12T10:31:36.077Z,85.71
2022-11-12T10:34:19.256Z,86.13
2022-11-12T10:36:45.636Z,85.02
2022-11-12T10:39:07.114Z,84.81
2022-11-12T10:41:33.938Z,83.82
2022-11-12T10:44:03.850Z,84.26
2022-11-12T10:46:34.778Z,84.32
2022-11-12T10:49:10.756Z,84.64
2022-11-12T10:51:34.819Z,84.66
2022-11-12T10:53:56.872Z,83.71
2022-11-12T10:56:34.623Z,84.04
2022-11-12T10:59:15.377Z,83.98
2022-11-12T11:01:40.452Z,82.62
2022-11-12T11:04:04.604Z,82.90
2022-11-12T11:06:27.185Z,82.23
2022-11-12T11:08:50.759Z,81.91
2022-11-12T11:11:29.420Z,82.29
2022-11-12T11:13:55.835Z,80.34
2022-11-12T11:16:26.642Z,80.18
2022-11-12T11:18:55.731Z,79.47
2022-11-12T11:21:52.389Z,79.90
2022-11-12T11:24:36.729Z,79.91
2022-11-12T11:27:10.542Z,77.84
2022-11-12T11:29:50.795Z,78.75
2022-11-12T11:32:41.321Z,78.88
2022-11-12T11:35:28.707Z,78.57
2022-11-12T11:38:12.079Z,79.29
2022-11-12T11:40:43.400Z,78.80
2022-11-12T11:43:18.219Z,79.09
2022-11-12T11:45:54.429Z,78.84
2022-11-12T11:48:15.894Z,77.63
2022-11-12T11:50:57.490Z,77.25
2022-11-12T11:53:39.217Z,77.41
2022-11-12T11:56:14.506Z,77.68
2022-11-12T11:59:04.719Z,77.39
2022-11-12T12:01:35.033Z,77.07
2022-11-12T12:03:59.550Z,77.64
2022-11-12T12:06:30.222Z,78.75
2022-11-12T12:09:00.625Z,78.74
2022-11-12T12:12:00.290Z,78.23
2022-11-12T12:14:47.075Z,78.04
2022-11-12T12:17:22.184Z,76.57
2022-11-12T12:20:02.434Z,74.88
2022-11-12T12:22:50.544Z,76.07
2022-11-12T12:25:19.912Z,75.23
2022-11-12T12:28:02.332Z,75.11
2022-11-12T12:30:25.111Z,75.59
2022-11-12T12:32:55.836Z,76.02
2022-11-12T12:35:29.570Z,74.11
2022-11-12T12:38:13.653Z,74.81
2022-11-12T12:40:43.289Z,73.85
2022-11-12T12:43:21.042Z,74.38
2022-11-12T12:45:46.940Z,73.54
2022-11-12T12:48:34.380Z,73.41
2022-11-12T12:50:55.994Z,72.30
2022-11-12T12:53:17.369Z,70.11
2022-11-12T12:55:40.136Z,71.14
2022-11-12T12:58:01.705Z,71.22
2022-11-12T13:00:41.067Z,71.58
2022-11-12T13:03:02.757Z,72.41
2022-11-12T13:05:34.404Z,71.59
2022-11-12T13:08:18.481Z,71.82
2022-11-12T13:10:39.898Z,71.92
2022-11-12T13:13:05.209Z,72.10
2022-11-12T13:15:43.084Z,70.84
2022-11-12T13:18:11.578Z,71.89
2022-11-12T13:20:40.388Z,71.73
2022-11-12T13:23:02.335Z,72.22
2022-11-12T13:25:32.131Z,71.47
2022-11-12T13:27:53.529Z,70.00
2022-11-12T13:30:17.560Z,69.02
2022-11-12T13:32:47.971Z,69.87
2022-11-12T13:35:22.322Z,69.90
2022-11-12T13:37:45.760Z,70.44
2022-11-12T13:40:13.681Z,70.92
2022-11-12T13:42:50.547Z,71.18
2022-11-12T13:45:13.208Z,70.95
2022-11-12T13:47:34.716Z,71.54
2022-11-12T13:50:01.279Z,72.38
2022-11-12T13:52:23.674Z,72.12
2022-11-12T13:54:45.143Z,71.06
2022-11-12T13:57:25.091Z,71.20
2022-11-12T13:59:47.698Z,70.90
2022-11-12T14:02:21.037Z,70.61
2022-11-12T14:04:42.553Z,71.50
2022-11-12T14:07:43.466Z,70.64
2022-11-12T14:10:22.977Z,70.97
2022-11-12T14:12:59.407Z,71.07
2022-11-12T14:15:39.358Z,71.46
2022-11-12T14:18:22.263Z,71.69
2022-11-12T14:20:44.746Z,71.85
2022-11-12T14:23:18.793Z,72.60
2022-11-12T14:25:54.290Z,72.77
2022-11-12T14:28:31.235Z,72.88
2022-11-12T14:30:53.220Z,72.89
2022-11-12T14:33:21.095Z,74.51
2022-11-12T14:35:42.669Z,74.97
2022-11-12T14:38:06.537Z,74.89
2022-11-12T14:40:30.863Z,74.93
2022-11-12T14:42:53.369Z,75.15
2022-11-12T14:45:19.982Z,75.55
2022-11-12T14:47:41.459Z,75.27
2022-11-12T14:50:03.350Z,76.40
2022-11-12T14:52:32.910Z,77.35
2022-11-12T14:54:59.110Z,77.38
2022-11-12T14:57:25.602Z,77.21
2022-11-12T14:59:47.258Z,77.07
2022-11-12T15:02:31.648Z,77.31
2022-11-12T15:05:00.869Z,77.64
2022-11-12T15:07:35.619Z,77.59
2022-11-12T15:09:57.155Z,77.94
2022-11-12T15:12:31.966Z,77.80
2022-11-12T15:15:03.422Z,78.03
2022-11-12T15:17:33.657Z,78.25
2022-11-12T15:20:01.610Z,77.93
2022-11-12T15:22:23.264Z,78.34
2022-11-12T15:24:45.990Z,78.09
2022-11-12T15:27:36.136Z,78.78
2022-11-12T15:30:19.548Z,79.50
2022-11-12T15:32:41.113Z,79.40
2022-11-12T15:35:02.679Z,79.95
2022-11-12T15:37:27.566Z,79.84
2022-11-12T15:39:51.552Z,79.70
2022-11-12T15:42:17.666Z,79.60
2022-11-12T15:44:39.120Z,79.70
2022-11-12T15:47:01.513Z,79.74
2022-11-12T15:49:22.956Z,79.75
2022-11-12T15:51:44.450Z,79.59
2022-11-12T15:54:05.892Z,79.66
2022-11-12T15:56:27.387Z,79.33
2022-11-12T15:58:48.958Z,79.02
2022-11-12T16:01:11.548Z,79.46
2022-11-12T16:03:33.222Z,79.76
2022-11-12T16:05:54.755Z,79.53
2022-11-12T16:08:16.222Z,79.39
2022-11-12T16:10:39.619Z,79.21
2022-11-12T16:13:02.948Z,79.98
2022-11-12T16:15:25.743Z,80.24
2022-11-12T16:17:48.187Z,80.59
2022-11-12T16:20:21.584Z,80.58
2022-11-12T16:22:43.083Z,80.03
2022-11-12T16:25:05.026Z,80.15
2022-11-12T16:27:26.505Z,80.03
2022-11-12T16:29:47.948Z,80.36
2022-11-12T16:32:13.923Z,80.19
2022-11-12T16:34:35.469Z,80.45
2022-11-12T16:36:58.157Z,80.46
2022-11-12T16:39:19.598Z,80.67
2022-11-12T16:41:41.105Z,80.34
2022-11-12T16:44:02.566Z,79.25
2022-11-12T16:46:29.086Z,78.45
2022-11-12T16:48:50.494Z,79.19
2022-11-12T16:51:19.325Z,79.02
2022-11-12T16:53:40.771Z,78.87
2022-11-12T16:56:02.216Z,79.48
2022-11-12T16:58:23.673Z,79.67
2022-11-12T17:00:49.969Z,79.41
2022-11-12T17:03:13.050Z,79.32
2022-11-12T17:05:34.536Z,79.47
2022-11-12T17:07:57.873Z,79.82
2022-11-12T17:10:23.150Z,79.64
2022-11-12T17:12:48.605Z,79.93
2022-11-12T17:15:10.343Z,79.86
2022-11-12T17:17:31.793Z,80.21
2022-11-12T17:19:53.340Z,80.57
2022-11-12T17:22:14.810Z,80.54
2022-11-12T17:24:36.375Z,80.16
2022-11-12T17:27:00.119Z,80.11
2022-11-12T17:29:21.668Z,79.96
2022-11-12T17:31:43.169Z,79.78
2022-11-12T17:34:06.997Z,80.23
2022-11-12T17:36:28.701Z,80.01
2022-11-12T17:38:58.080Z,80.14
2022-11-12T17:41:19.529Z,78.85
2022-11-12T17:43:41.412Z,77.81
2022-11-12T17:46:04.244Z,78.29
2022-11-12T17:48:26.438Z,78.44
2022-11-12T17:50:48.353Z,78.79
2022-11-12T17:53:09.816Z,79.13
2022-11-12T17:55:31.260Z,79.18
2022-11-12T17:57:52.701Z,79.50
2022-11-12T18:00:14.921Z,79.67
2022-11-12T18:02:36.406Z,80.20
2022-11-12T18:04:57.875Z,80.59
2022-11-12T18:07:19.397Z,80.50
2022-11-12T18:09:40.871Z,80.55
2022-11-12T18:12:02.282Z,80.31
2022-11-12T18:14:24.588Z,80.41
2022-11-12T18:16:46.279Z,79.97
2022-11-12T18:19:10.930Z,79.83
2022-11-12T18:21:32.477Z,80.23
2022-11-12T18:23:54.047Z,80.05
2022-11-12T18:26:18.320Z,80.07
2022-11-12T18:28:39.807Z,79.69
2022-11-12T18:31:08.498Z,79.87
2022-11-12T18:33:30.815Z,79.49
2022-11-12T18:36:08.008Z,79.36
2022-11-12T18:38:33.329Z,79.44
2022-11-12T18:41:02.272Z,79.31
2022-11-12T18:43:23.772Z,79.44
2022-11-12T18:45:53.893Z,79.25
2022-11-12T18:48:15.354Z,78.94
2022-11-12T18:50:36.806Z,78.70
2022-11-12T18:52:58.301Z,78.52
2022-11-12T18:55:19.721Z,78.62
2022-11-12T18:57:41.255Z,78.73
2022-11-12T19:00:03.305Z,78.69
2022-11-12T19:02:24.776Z,78.80
2022-11-12T19:04:46.345Z,78.60
2022-11-12T19:07:07.818Z,78.45
2022-11-12T19:09:29.320Z,78.68
2022-11-12T19:11:50.748Z,78.61
2022-11-12T19:14:12.274Z,78.49
2022-11-12T19:16:33.705Z,78.42
2022-11-12T19:18:55.847Z,78.06
2022-11-12T19:21:22.761Z,78.38
2022-11-12T19:23:47.006Z,78.57
2022-11-12T19:26:15.351Z,78.74
2022-11-12T19:28:36.986Z,78.91
2022-11-12T19:31:02.611Z,79.04
2022-11-12T19:33:24.310Z,78.24
2022-11-12T19:35:45.824Z,78.27
2022-11-12T19:38:07.282Z,78.28
2022-11-12T19:40:28.699Z,79.01
2022-11-12T19:42:50.168Z,78.49
2022-11-12T19:45:11.608Z,78.16
2022-11-12T19:47:33.068Z,78.26
2022-11-12T19:49:54.507Z,77.94
2022-11-12T19:52:15.994Z,77.86
2022-11-12T19:54:37.416Z,78.34
2022-11-12T19:56:58.950Z,77.94
2022-11-12T19:59:20.459Z,77.59
2022-11-12T20:01:41.943Z,78.10
2022-11-12T20:04:03.468Z,77.50
2022-11-12T20:06:27.116Z,77.67
2022-11-12T20:08:48.749Z,77.75
2022-11-12T20:11:10.698Z,77.58
2022-11-12T20:13:32.440Z,77.71
2022-11-12T20:15:54.063Z,78.09
2022-11-12T20:18:16.508Z,78.22
2022-11-12T20:20:37.935Z,77.83
2022-11-12T20:22:59.440Z,77.62
2022-11-12T20:25:20.866Z,77.71
2022-11-12T20:27:42.331Z,77.62
2022-11-12T20:30:04.678Z,78.06
2022-11-12T20:32:26.408Z,77.88
2022-11-12T20:34:48.341Z,77.91
2022-11-12T20:37:10.000Z,77.91
2022-11-12T20:39:32.557Z,78.29
2022-11-12T20:41:53.947Z,77.73
2022-11-12T20:44:15.325Z,77.99
2022-11-12T20:46:36.734Z,77.92
2022-11-12T20:48:58.276Z,78.12
2022-11-12T20:51:24.724Z,78.01
2022-11-12T20:53:47.317Z,77.97
2022-11-12T20:56:11.818Z,78.16
2022-11-12T20:58:33.330Z,78.63
2022-11-12T21:00:54.830Z,78.99
2022-11-12T21:03:16.288Z,80.01
2022-11-12T21:05:37.712Z,78.94
2022-11-12T21:07:59.387Z,79.14
2022-11-12T21:10:20.818Z,79.12
2022-11-12T21:12:42.350Z,78.38
2022-11-12T21:15:04.424Z,78.42
2022-11-12T21:17:25.921Z,78.35
2022-11-12T21:19:47.383Z,78.59
2022-11-12T21:22:08.904Z,78.87
2022-11-12T21:24:30.401Z,78.96
2022-11-12T21:26:51.884Z,78.88
2022-11-12T21:29:16.614Z,78.72
2022-11-12T21:31:40.343Z,78.23
2022-11-12T21:34:07.012Z,77.95
2022-11-12T21:36:28.845Z,78.06
2022-11-12T21:38:50.304Z,77.84
2022-11-12T21:41:17.492Z,77.54
2022-11-12T21:43:40.643Z,77.74
2022-11-12T21:46:02.277Z,77.66
2022-11-12T21:48:23.900Z,77.80
2022-11-12T21:50:45.404Z,78.39
2022-11-12T21:53:06.864Z,78.74
2022-11-12T21:55:28.352Z,77.94
2022-11-12T21:57:49.786Z,78.03
2022-11-12T22:00:40.431Z,77.78
2022-11-12T22:02:58.039Z,78.16
2022-11-12T22:05:19.491Z,78.66
2022-11-12T22:07:41.164Z,78.22
2022-11-12T22:10:02.621Z,78.22
2022-11-12T22:12:24.099Z,78.55
2022-11-12T22:14:45.617Z,78.59
2022-11-12T22:17:07.079Z,78.46
2022-11-12T22:19:28.515Z,78.37
2022-11-12T22:21:49.978Z,77.99
2022-11-12T22:24:11.909Z,78.34
2022-11-12T22:26:33.515Z,78.62
2022-11-12T22:28:57.208Z,78.60
2022-11-12T22:31:21.173Z,78.41
2022-11-12T22:33:42.939Z,79.08
2022-11-12T22:36:09.200Z,79.44
2022-11-12T22:38:39.413Z,79.29
2022-11-12T22:41:04.831Z,79.06
2022-11-12T22:43:26.771Z,79.33
2022-11-12T22:45:48.430Z,79.27
2022-11-12T22:48:09.883Z,79.21
2022-11-12T22:50:31.611Z,80.22
2022-11-12T22:52:53.133Z,79.82
2022-11-12T22:55:14.709Z,79.72
2022-11-12T22:57:36.202Z,79.28
2022-11-12T22:59:58.564Z,79.28
2022-11-12T23:02:20.133Z,79.33
2022-11-12T23:04:41.555Z,78.77
2022-11-12T23:07:03.072Z,78.98
2022-11-12T23:09:24.528Z,78.78
2022-11-12T23:11:46.036Z,78.67
2022-11-12T23:14:08.303Z,78.85
2022-11-12T23:16:31.263Z,78.93
2022-11-12T23:18:53.345Z,79.01
2022-11-12T23:21:18.220Z,79.16
2022-11-12T23:23:39.751Z,79.21
2022-11-12T23:26:22.849Z,78.94
2022-11-12T23:28:44.344Z,78.71
2022-11-12T23:31:11.316Z,78.51
2022-11-12T23:33:32.743Z,78.59
2022-11-12T23:35:54.249Z,78.71
2022-11-12T23:38:15.679Z,78.96
2022-11-12T23:40:37.095Z,78.96
2022-11-12T23:42:58.526Z,79.19
2022-11-12T23:45:19.949Z,78.59
2022-11-12T23:47:41.364Z,78.71
2022-11-12T23:50:03.427Z,78.16
2022-11-12T23:52:24.949Z,78.94
2022-11-12T23:54:46.423Z,78.86
2022-11-12T23:57:07.928Z,78.79
2022-11-12T23:59:29.414Z,79.58
